Time;durP1;ratioP1;P1;durP2;ratioP2;P2;SDS_P1;SDS_P2;PMS_P1;PMS_P2;Temp;Humidity;BMP_temperature;BMP_pressure;BME280_temperature;BME280_humidity;BME280_pressure;Samples;Min_cycle;Max_cycle;Signal;HPM_P1;HPM_P2
2022/01/06 01:29:18;;;;;;;0.28;0.28;;;;;;;0.00;100.00;93522.97;4822852;23;20069;-90
2022/01/06 01:31:52;;;;;;;13.32;0.47;;;;;;;0.12;100.00;93536.63;4967542;28;20046;-90
2022/01/06 01:34:33;;;;;;;0.40;0.40;;;;;;;0.06;100.00;93537.53;4983711;28;20038;-90
2022/01/06 01:37:00;;;;;;;0.30;0.30;;;;;;;-0.06;100.00;93547.81;4982441;28;20053;-91
2022/01/06 01:39:31;;;;;;;0.20;0.20;;;;;;;-0.08;100.00;93556.75;4982574;28;20424;-90
2022/01/06 01:45:19;;;;;;;0.10;0.10;;;;;;;-0.26;100.00;93568.69;5000071;28;20040;-91
2022/01/06 01:51:08;;;;;;;0.30;0.22;;;;;;;-0.02;100.00;93573.91;4999871;28;20033;-93
2022/01/06 01:53:35;;;;;;;0.10;0.10;;;;;;;-0.17;100.00;93580.25;4982735;28;20053;-91
2022/01/06 01:56:02;;;;;;;0.10;0.10;;;;;;;-0.46;100.00;93567.16;4982952;28;20026;-92
2022/01/06 01:58:27;;;;;;;0.13;0.13;;;;;;;-0.48;100.00;93573.53;4998839;28;20121;-91
2022/01/06 02:00:53;;;;;;;0.10;0.10;;;;;;;-0.41;100.00;93583.75;4982610;28;20117;-90
2022/01/06 02:03:19;;;;;;;0.20;0.20;;;;;;;-0.54;100.00;93576.97;4982248;28;20030;-91
2022/01/06 02:05:45;;;;;;;0.10;0.10;;;;;;;-0.65;100.00;93588.78;4998081;28;20034;-91
2022/01/06 02:11:32;;;;;;;0.10;0.10;;;;;;;-0.42;100.00;93600.97;4999442;28;20037;-92
2022/01/06 02:14:27;;;;;;;0.20;0.20;;;;;;;-0.55;100.00;93599.34;4999459;28;20053;-91
2022/01/06 02:16:54;;;;;;;0.20;0.20;;;;;;;-0.47;100.00;93591.31;4981901;28;20088;-91
2022/01/06 02:19:29;;;;;;;0.20;0.20;;;;;;;-0.52;100.00;93596.34;4981983;28;20346;-91
2022/01/06 02:21:55;;;;;;;0.10;0.10;;;;;;;-0.51;100.00;93590.19;4981979;28;20034;-92
2022/01/06 02:24:30;;;;;;;0.10;0.10;;;;;;;-0.38;100.00;93594.38;4981752;28;20502;-90
2022/01/06 02:26:55;;;;;;;0.20;0.20;;;;;;;-0.60;100.00;93599.19;4965800;28;20030;-91
2022/01/06 02:29:24;;;;;;;1.95;0.20;;;;;;;-0.77;100.00;93610.09;4965716;28;20125;-91
2022/01/06 02:31:49;;;;;;;0.35;0.20;;;;;;;-0.62;100.00;93609.72;4981805;28;20045;-90
2022/01/06 02:34:15;;;;;;;1.00;0.20;;;;;;;-0.69;100.00;93605.66;4965561;28;20034;-90
2022/01/06 02:36:40;;;;;;;0.10;0.10;;;;;;;-0.83;100.00;93613.53;4980529;28;20129;-90
2022/01/06 02:39:07;;;;;;;0.32;0.20;;;;;;;-0.54;100.00;93625.84;4981400;28;20034;-91
2022/01/06 02:41:33;;;;;;;0.20;0.20;;;;;;;-0.44;100.00;93621.00;4981675;28;20044;-91
2022/01/06 02:44:00;;;;;;;0.10;0.10;;;;;;;-0.49;100.00;93611.34;4998649;28;20305;-92
2022/01/06 02:46:25;;;;;;;0.10;0.10;;;;;;;-0.51;100.00;93609.97;4998848;28;20087;-91
2022/01/06 02:48:51;;;;;;;0.13;0.13;;;;;;;-0.59;100.00;93608.50;4981217;28;20077;-92
2022/01/06 02:51:17;;;;;;;0.15;0.13;;;;;;;-0.66;100.00;93605.22;4981269;28;20458;-92
2022/01/06 02:53:42;;;;;;;0.10;0.10;;;;;;;-0.63;100.00;93608.16;4998685;28;20112;-91
2022/01/06 02:56:08;;;;;;;0.10;0.10;;;;;;;-0.59;100.00;93614.44;4981431;28;20112;-92
2022/01/06 02:58:34;;;;;;;0.10;0.10;;;;;;;-0.56;100.00;93605.50;4997487;28;20034;-91
2022/01/06 03:00:59;;;;;;;0.43;0.20;;;;;;;-0.61;100.00;93613.88;4981005;28;20359;-92
2022/01/06 03:03:25;;;;;;;0.10;0.10;;;;;;;-0.41;100.00;93619.78;4981219;28;20041;-91
2022/01/06 03:05:50;;;;;;;0.10;0.10;;;;;;;-0.57;100.00;93624.53;4997176;28;20108;-90
2022/01/06 03:08:18;;;;;;;0.60;0.10;;;;;;;-0.57;100.00;93621.94;4981026;28;20031;-92
2022/01/06 03:10:44;;;;;;;0.13;0.13;;;;;;;-0.49;100.00;93619.06;4981903;28;20031;-92
2022/01/06 03:13:10;;;;;;;0.10;0.10;;;;;;;-0.57;100.00;93627.09;4980781;28;20030;-92
2022/01/06 03:15:36;;;;;;;0.10;0.10;;;;;;;-0.65;100.00;93623.00;4980940;28;20053;-92
2022/01/06 03:18:02;;;;;;;0.20;0.20;;;;;;;-0.57;100.00;93627.09;4981131;28;20436;-91
2022/01/06 03:20:29;;;;;;;0.10;0.10;;;;;;;-0.43;100.00;93622.56;4981118;28;20034;-92
2022/01/06 03:22:57;;;;;;;0.10;0.10;;;;;;;-0.34;100.00;93630.78;4998279;28;20030;-91
2022/01/06 03:25:23;;;;;;;0.10;0.10;;;;;;;-0.43;100.00;93625.13;4996806;28;20053;-91
2022/01/06 03:27:49;;;;;;;0.10;0.10;;;;;;;-0.37;100.00;93621.69;4980539;28;20038;-91
2022/01/06 03:30:18;;;;;;;0.10;0.10;;;;;;;-0.38;100.00;93614.19;4964659;28;20049;-91
2022/01/06 03:32:44;;;;;;;0.20;0.20;;;;;;;-0.54;100.00;93613.78;4996746;28;20044;-91
2022/01/06 03:35:12;;;;;;;0.10;0.10;;;;;;;-0.84;100.00;93621.44;4980883;28;20038;-92
2022/01/06 03:37:39;;;;;;;0.10;0.10;;;;;;;-0.63;100.00;93626.16;4980476;28;20076;-91
2022/01/06 03:40:05;;;;;;;0.57;0.10;;;;;;;-0.33;100.00;93640.06;4997212;28;20050;-92
2022/01/06 03:42:35;;;;;;;0.20;0.20;;;;;;;-0.48;100.00;93635.31;4996826;28;20034;-92
2022/01/06 03:45:03;;;;;;;0.20;0.17;;;;;;;-0.69;100.00;93637.31;4980778;28;20030;-92
2022/01/06 03:47:28;;;;;;;0.10;0.10;;;;;;;-0.76;100.00;93634.81;4980472;28;20034;-92
2022/01/06 03:49:54;;;;;;;0.10;0.10;;;;;;;-0.59;100.00;93635.03;4964757;28;20125;-92
2022/01/06 03:52:19;;;;;;;0.45;0.30;;;;;;;-0.69;100.00;93639.88;4980171;28;20042;-91
2022/01/06 03:54:45;;;;;;;0.25;0.20;;;;;;;-0.50;100.00;93648.38;4980531;28;20030;-92
2022/01/06 03:57:11;;;;;;;0.20;0.20;;;;;;;-0.44;100.00;93644.16;4997597;28;20034;-92
2022/01/06 03:59:37;;;;;;;0.10;0.10;;;;;;;-0.66;100.00;93646.38;4980114;28;20089;-93
2022/01/06 04:02:04;;;;;;;0.10;0.10;;;;;;;-0.75;100.00;93644.09;4997998;28;20101;-92
2022/01/06 04:04:29;;;;;;;0.10;0.10;;;;;;;-0.94;100.00;93643.28;4996538;28;20040;-92
2022/01/06 04:06:55;;;;;;;0.10;0.10;;;;;;;-0.89;100.00;93647.78;4964788;28;20432;-92
2022/01/06 04:09:20;;;;;;;0.10;0.10;;;;;;;-0.64;100.00;93650.31;4997031;28;20031;-92
2022/01/06 04:11:46;;;;;;;0.10;0.10;;;;;;;-0.40;100.00;93650.44;4996472;28;20447;-92
2022/01/06 04:14:13;;;;;;;0.10;0.10;;;;;;;-0.34;100.00;93647.03;4998546;28;20030;-92
2022/01/06 04:16:40;;;;;;;0.10;0.10;;;;;;;-0.56;100.00;93644.09;4998116;28;20038;-88
2022/01/06 04:19:06;;;;;;;0.22;0.22;;;;;;;-0.66;100.00;93643.81;4964123;28;20096;-88
2022/01/06 04:21:32;;;;;;;0.50;0.50;;;;;;;-0.54;100.00;93654.16;4976515;28;20346;-89
2022/01/06 04:23:57;;;;;;;0.20;0.20;;;;;;;-0.68;100.00;93651.72;4960629;28;20443;-89
2022/01/06 04:26:23;;;;;;;0.10;0.10;;;;;;;-0.46;100.00;93653.88;4960577;28;20436;-90
2022/01/06 04:28:49;;;;;;;0.65;0.45;;;;;;;-0.46;100.00;93648.75;4960768;28;20038;-90
2022/01/06 04:31:15;;;;;;;0.20;0.20;;;;;;;-0.29;100.00;93654.06;4960258;28;20364;-90
2022/01/06 04:33:41;;;;;;;0.20;0.20;;;;;;;-0.33;100.00;93658.88;4977556;28;20034;-89
2022/01/06 04:36:09;;;;;;;0.10;0.10;;;;;;;-0.49;100.00;93665.38;4962950;28;20455;-90
2022/01/06 04:38:38;;;;;;;0.10;0.10;;;;;;;-0.61;100.00;93667.09;4980365;28;20420;-89
2022/01/06 04:41:04;;;;;;;0.10;0.10;;;;;;;-0.36;100.00;93674.78;4995859;28;20080;-89
2022/01/06 04:43:32;;;;;;;0.10;0.10;;;;;;;-0.68;100.00;93674.13;4979762;28;20435;-89
2022/01/06 04:45:58;;;;;;;0.15;0.15;;;;;;;-0.48;100.00;93672.09;4996295;28;20046;-89
2022/01/06 04:48:24;;;;;;;0.10;0.10;;;;;;;-0.47;100.00;93675.47;4996268;28;20026;-89
2022/01/06 04:50:49;;;;;;;0.10;0.10;;;;;;;-0.26;100.00;93683.75;4980100;28;20041;-89
2022/01/06 04:53:15;;;;;;;4.00;0.50;;;;;;;-0.45;100.00;93679.41;4979765;28;20054;-89
2022/01/06 04:55:40;;;;;;;0.10;0.10;;;;;;;-0.43;100.00;93680.00;4979716;28;20040;-89
2022/01/06 04:58:52;;;;;;;0.10;0.10;;;;;;;-0.44;100.00;93687.91;4979609;28;20051;-89
2022/01/06 05:04:39;;;;;;;0.10;0.10;;;;;;;-0.56;100.00;93690.44;4996834;28;20096;-89
2022/01/06 05:10:26;;;;;;;0.10;0.10;;;;;;;-1.08;100.00;93712.06;4996758;28;20037;-88
2022/01/06 05:12:52;;;;;;;0.10;0.10;;;;;;;-0.75;100.00;93725.63;4979220;28;20026;-89
2022/01/06 05:15:18;;;;;;;0.10;0.10;;;;;;;-0.70;100.00;93725.00;4979510;28;20030;-89
2022/01/06 05:17:43;;;;;;;0.10;0.10;;;;;;;-0.55;100.00;93730.59;4963623;28;20034;-89
2022/01/06 05:20:11;;;;;;;0.10;0.10;;;;;;;-0.54;100.00;93724.44;4979379;28;20089;-88
2022/01/06 05:22:43;;;;;;;0.10;0.10;;;;;;;-0.51;100.00;93736.88;4980585;28;20031;-89
2022/01/06 05:25:09;;;;;;;0.10;0.10;;;;;;;-0.90;100.00;93731.09;4983807;28;20038;-89
2022/01/06 05:27:35;;;;;;;0.10;0.10;;;;;;;-0.86;100.00;93734.84;4983162;28;20026;-89
2022/01/06 05:30:01;;;;;;;0.10;0.10;;;;;;;-1.13;100.00;93740.19;4966584;28;20034;-89
2022/01/06 05:32:27;;;;;;;1.65;0.20;;;;;;;-1.06;100.00;93745.28;5000447;28;20080;-89
2022/01/06 05:34:53;;;;;;;0.10;0.10;;;;;;;-1.10;100.00;93751.81;4982696;28;20034;-88
2022/01/06 05:37:18;;;;;;;0.10;0.10;;;;;;;-1.08;100.00;93752.41;4982906;28;20113;-88
2022/01/06 05:39:44;;;;;;;0.10;0.10;;;;;;;-0.88;100.00;93757.38;4966419;28;20049;-88
2022/01/06 05:42:13;;;;;;;0.10;0.10;;;;;;;-0.73;100.00;93762.22;4982628;28;20057;-89
2022/01/06 05:44:40;;;;;;;0.45;0.10;;;;;;;-0.53;100.00;93766.38;4983296;28;20105;-88
2022/01/06 05:47:06;;;;;;;0.10;0.10;;;;;;;-0.79;100.00;93758.72;4982775;28;20030;-89
2022/01/06 05:49:33;;;;;;;0.10;0.10;;;;;;;-0.60;100.00;93756.16;4982821;28;20039;-89
2022/01/06 05:51:59;;;;;;;0.30;0.15;;;;;;;-0.69;100.00;93755.66;4982935;28;20053;-89
2022/01/06 05:54:25;;;;;;;0.20;0.20;;;;;;;-0.55;100.00;93758.91;4982750;28;20089;-90
2022/01/06 05:56:51;;;;;;;0.20;0.20;;;;;;;-0.31;100.00;93756.47;4998261;28;20030;-89
2022/01/06 05:59:17;;;;;;;0.20;0.13;;;;;;;-0.32;100.00;93760.06;4982584;28;20088;-89
2022/01/06 06:01:43;;;;;;;0.20;0.20;;;;;;;-0.21;100.00;93763.72;4999283;28;20042;-89
2022/01/06 06:04:09;;;;;;;0.20;0.20;;;;;;;-0.21;100.00;93769.66;4982173;28;20042;-90
2022/01/06 06:06:34;;;;;;;0.10;0.10;;;;;;;-0.27;100.00;93765.38;4982188;28;20057;-89
2022/01/06 06:09:00;;;;;;;0.20;0.20;;;;;;;-0.37;100.00;93767.63;4982422;28;20041;-89
2022/01/06 06:11:25;;;;;;;0.22;0.20;;;;;;;-0.48;100.00;93774.28;4982058;28;20061;-89
2022/01/06 06:13:51;;;;;;;0.10;0.10;;;;;;;-0.33;100.00;93786.78;4982264;28;20056;-88
2022/01/06 06:16:17;;;;;;;0.20;0.20;;;;;;;-0.29;100.00;93788.72;4999095;28;20041;-89
2022/01/06 06:18:43;;;;;;;0.15;0.13;;;;;;;-0.33;100.00;93786.78;4999529;28;20037;-89
2022/01/06 06:21:08;;;;;;;0.10;0.10;;;;;;;-0.50;100.00;93781.41;4982158;28;20089;-89
2022/01/06 06:23:34;;;;;;;0.30;0.13;;;;;;;-0.47;100.00;93788.72;4982130;28;20030;-88
2022/01/06 06:26:00;;;;;;;0.20;0.20;;;;;;;-0.53;100.00;93805.00;4966302;28;20470;-89
2022/01/06 06:28:26;;;;;;;0.10;0.10;;;;;;;-0.63;100.00;93797.75;4981664;28;20030;-89
2022/01/06 06:30:51;;;;;;;0.10;0.10;;;;;;;-0.51;100.00;93795.28;4981742;28;20034;-88
2022/01/06 06:33:17;;;;;;;0.30;0.20;;;;;;;-0.43;100.00;93807.88;4980990;28;20052;-88
2022/01/06 06:35:43;;;;;;;0.25;0.25;;;;;;;-0.37;100.00;93801.88;4997640;28;20045;-89
2022/01/06 06:38:08;;;;;;;0.17;0.17;;;;;;;-0.30;100.00;93801.81;4981435;28;20046;-89
2022/01/06 06:40:34;;;;;;;0.30;0.30;;;;;;;-0.27;100.00;93803.97;4981446;28;20122;-90
2022/01/06 06:43:00;;;;;;;0.25;0.25;;;;;;;-0.21;100.00;93804.91;4998112;28;20089;-92
2022/01/06 06:45:26;;;;;;;0.20;0.20;;;;;;;-0.33;100.00;93803.03;5001385;28;20030;-94
2022/01/06 06:47:51;;;;;;;0.50;0.32;;;;;;;-0.36;100.00;93800.09;4983674;28;20348;-94
2022/01/06 06:50:17;;;;;;;0.30;0.30;;;;;;;-0.36;100.00;93813.78;4982452;28;20053;-94
2022/01/06 06:52:45;;;;;;;0.20;0.20;;;;;;;-0.72;100.00;93805.75;4983365;28;20030;-94
2022/01/06 06:55:12;;;;;;;1.27;0.43;;;;;;;-0.50;100.00;93807.13;4998320;28;20042;-93
2022/01/06 06:57:38;;;;;;;0.40;0.30;;;;;;;-0.47;100.00;93804.94;4997425;28;20121;-93
2022/01/06 07:00:06;;;;;;;0.20;0.20;;;;;;;-0.59;100.00;93810.00;4997724;28;20097;-93
2022/01/06 07:02:32;;;;;;;0.20;0.20;;;;;;;-0.73;100.00;93809.31;4981597;28;20337;-92
2022/01/06 07:04:59;;;;;;;29.17;0.98;;;;;;;-0.51;100.00;93816.66;4981321;28;20045;-93
2022/01/06 07:07:25;;;;;;;0.57;0.40;;;;;;;-0.45;100.00;93820.19;4997891;28;20030;-91
2022/01/06 07:09:51;;;;;;;1.00;0.65;;;;;;;-0.47;100.00;93822.19;4997153;28;20034;-91
2022/01/06 07:12:17;;;;;;;2.60;0.32;;;;;;;-0.39;100.00;93821.13;4980533;28;20125;-91
2022/01/06 07:14:43;;;;;;;0.20;0.20;;;;;;;-0.50;100.00;93828.53;4998522;28;20346;-92
2022/01/06 07:17:09;;;;;;;0.20;0.20;;;;;;;-0.57;100.00;93831.16;4981076;28;20121;-92
2022/01/06 07:19:34;;;;;;;0.40;0.40;;;;;;;-0.50;100.00;93830.28;4981315;28;20339;-92
2022/01/06 07:22:00;;;;;;;0.40;0.40;;;;;;;-0.38;100.00;93835.56;4964953;28;20037;-92
2022/01/06 07:24:28;;;;;;;0.30;0.30;;;;;;;-0.47;100.00;93838.41;4998346;28;20383;-92
2022/01/06 07:26:54;;;;;;;0.55;0.50;;;;;;;-0.65;100.00;93836.56;4998456;28;20026;-91
2022/01/06 07:29:20;;;;;;;0.30;0.30;;;;;;;-0.52;100.00;93840.03;4980619;28;20030;-91
2022/01/06 07:31:46;;;;;;;0.40;0.40;;;;;;;-0.41;100.00;93841.13;4998073;28;20038;-91
2022/01/06 07:34:12;;;;;;;4.18;1.48;;;;;;;-0.35;100.00;93842.84;4998084;28;20030;-90
2022/01/06 07:36:39;;;;;;;0.90;0.60;;;;;;;-0.40;100.00;93843.50;4980772;28;20128;-90
2022/01/06 07:39:05;;;;;;;1.58;0.90;;;;;;;-0.26;100.00;93841.59;4997955;28;20034;-90
2022/01/06 07:41:31;;;;;;;3.55;1.60;;;;;;;0.01;100.00;93846.50;4998349;28;20052;-93
2022/01/06 07:43:56;;;;;;;2.47;1.20;;;;;;;-0.07;100.00;93851.91;4980456;28;20030;-93
2022/01/06 07:46:22;;;;;;;2.05;1.17;;;;;;;-0.15;100.00;93851.19;4997271;28;20042;-90
2022/01/06 07:48:57;;;;;;;2.90;1.55;;;;;;;0.01;100.00;93854.22;4998153;28;20033;-91
2022/01/06 07:51:28;;;;;;;3.22;1.40;;;;;;;0.12;100.00;93858.63;4981641;28;20029;-92
2022/01/06 07:53:53;;;;;;;2.25;1.42;;;;;;;0.13;100.00;93856.88;4997861;28;20037;-92
2022/01/06 07:56:19;;;;;;;2.30;1.25;;;;;;;-0.03;100.00;93863.34;4980615;28;20491;-91
2022/01/06 07:58:45;;;;;;;2.65;1.38;;;;;;;-0.10;100.00;93870.38;4996790;28;20030;-90
2022/01/06 08:01:12;;;;;;;3.80;1.48;;;;;;;-0.16;100.00;93874.56;4964286;28;20026;-90
2022/01/06 08:03:38;;;;;;;2.78;1.63;;;;;;;-0.16;100.00;93875.34;4997649;28;20062;-90
2022/01/06 08:06:04;;;;;;;2.85;1.48;;;;;;;0.02;100.00;93875.59;4996466;28;20049;-91
2022/01/06 08:08:29;;;;;;;1.67;1.00;;;;;;;-0.05;100.00;93879.03;4980236;28;20064;-90
2022/01/06 08:10:54;;;;;;;3.22;1.17;;;;;;;-0.14;100.00;93877.72;4980034;28;20077;-92
2022/01/06 08:13:20;;;;;;;2.33;1.13;;;;;;;0.18;100.00;93884.56;4980041;28;20027;-91
2022/01/06 08:15:46;;;;;;;3.20;1.10;;;;;;;0.16;100.00;93889.16;4980753;28;20026;-93
2022/01/06 08:18:11;;;;;;;1.70;0.90;;;;;;;0.18;100.00;93879.41;4963751;28;20125;-91
2022/01/06 08:20:38;;;;;;;1.55;0.98;;;;;;;0.19;100.00;93883.56;4980370;28;20084;-91
2022/01/06 08:23:05;;;;;;;2.25;0.65;;;;;;;0.23;100.00;93885.50;4980448;28;20447;-92
2022/01/06 08:25:35;;;;;;;2.17;1.05;;;;;;;0.23;100.00;93884.72;4980788;28;20113;-94
2022/01/06 08:28:04;;;;;;;1.83;1.13;;;;;;;0.13;100.00;93892.94;4964985;28;20317;-92
2022/01/06 08:30:30;;;;;;;5.35;1.00;;;;;;;-0.08;100.00;93894.88;4996739;28;20042;-94
2022/01/06 08:32:59;;;;;;;6.65;0.80;;;;;;;0.32;100.00;93896.31;4996478;28;20435;-94
2022/01/06 08:35:25;;;;;;;1.05;0.80;;;;;;;0.17;100.00;93901.03;4997632;28;20351;-93
2022/01/06 08:37:50;;;;;;;1.50;0.90;;;;;;;0.04;100.00;93904.50;4980478;28;20436;-93
2022/01/06 08:40:16;;;;;;;4.63;1.13;;;;;;;0.21;100.00;93902.94;4980791;28;20085;-92
2022/01/06 08:42:42;;;;;;;1.75;1.10;;;;;;;0.34;100.00;93909.78;4964307;28;20030;-93
2022/01/06 08:45:09;;;;;;;1.55;0.95;;;;;;;0.17;100.00;93919.84;4996477;28;20042;-93
2022/01/06 08:47:35;;;;;;;2.13;0.90;;;;;;;0.45;100.00;93916.00;4993707;28;20035;-95
2022/01/06 08:50:01;;;;;;;3.80;1.63;;;;;;;0.75;100.00;93917.84;4996495;28;20084;-93
2022/01/06 08:52:28;;;;;;;1.92;1.10;;;;;;;0.86;100.00;93916.31;4995646;28;20038;-94
2022/01/06 08:54:53;;;;;;;2.65;0.80;;;;;;;0.88;100.00;93906.59;4980760;28;20186;-92
2022/01/06 08:57:19;;;;;;;1.90;1.00;;;;;;;1.03;100.00;93915.75;4982807;28;20147;-92
2022/01/06 08:59:45;;;;;;;1.45;1.00;;;;;;;1.01;100.00;93921.09;5000254;28;20030;-94
2022/01/06 09:02:12;;;;;;;2.03;0.98;;;;;;;1.27;100.00;93919.19;5000205;28;20109;-93
2022/01/06 09:04:39;;;;;;;1.42;0.90;;;;;;;0.89;100.00;93926.22;4999969;28;20136;-93
2022/01/06 09:07:05;;;;;;;2.85;1.13;;;;;;;1.40;100.00;93921.59;4984374;28;20034;-92
2022/01/06 09:09:30;;;;;;;12.85;1.50;;;;;;;1.40;100.00;93925.94;4983676;28;20117;-93
2022/01/06 09:11:58;;;;;;;5.53;1.08;;;;;;;1.45;100.00;93925.28;4967722;28;20092;-93
2022/01/06 09:14:24;;;;;;;2.83;0.90;;;;;;;1.50;100.00;93930.56;5001228;28;20027;-94
2022/01/06 09:16:51;;;;;;;1.75;0.95;;;;;;;1.73;100.00;93940.19;4967383;28;20033;-92
2022/01/06 09:19:16;;;;;;;3.00;1.27;;;;;;;1.68;100.00;93937.47;4968423;28;20435;-94
2022/01/06 09:21:43;;;;;;;3.35;1.65;;;;;;;1.47;100.00;93941.34;4984162;28;20446;-94
2022/01/06 09:24:09;;;;;;;6.20;1.65;;;;;;;1.57;100.00;93933.06;4983650;28;20033;-93
2022/01/06 09:26:35;;;;;;;3.95;1.60;;;;;;;1.62;100.00;93936.56;4967707;28;20112;-94
2022/01/06 09:29:06;;;;;;;3.58;1.95;;;;;;;1.80;100.00;93938.28;4983291;28;20423;-95
2022/01/06 09:31:36;;;;;;;5.75;1.92;;;;;;;2.05;100.00;93934.72;4983565;28;20064;-93
2022/01/06 09:34:04;;;;;;;3.55;1.95;;;;;;;1.94;100.00;93936.28;4999529;28;20026;-92
2022/01/06 09:36:30;;;;;;;4.93;1.90;;;;;;;2.07;100.00;93940.44;4983073;28;20065;-93
2022/01/06 09:38:56;;;;;;;4.95;1.92;;;;;;;2.01;100.00;93935.38;4999782;28;20030;-93
2022/01/06 09:41:23;;;;;;;6.35;1.50;;;;;;;1.87;100.00;93943.34;4982861;28;20042;-93
2022/01/06 09:43:52;;;;;;;5.13;1.85;;;;;;;2.01;100.00;93938.78;4970483;28;20034;-91
2022/01/06 09:46:20;;;;;;;5.13;1.80;;;;;;;1.90;100.00;93940.31;4967215;28;20041;-93
2022/01/06 09:48:46;;;;;;;3.90;2.40;;;;;;;2.03;100.00;93943.69;4982881;28;20038;-91
2022/01/06 09:51:15;;;;;;;8.85;2.10;;;;;;;2.20;100.00;93944.59;4982644;28;20136;-92
2022/01/06 09:53:41;;;;;;;7.70;2.88;;;;;;;1.76;100.00;93938.94;4999566;28;20254;-91
2022/01/06 09:56:07;;;;;;;7.72;2.88;;;;;;;1.99;100.00;93953.69;4982441;28;20528;-92
2022/01/06 09:58:32;;;;;;;3.97;1.35;;;;;;;1.62;100.00;93940.94;4982705;28;20034;-92
2022/01/06 10:00:58;;;;;;;11.02;2.33;;;;;;;1.45;100.00;93939.00;4982265;28;20037;-90
2022/01/06 10:03:34;;;;;;;6.72;2.20;;;;;;;1.74;100.00;93941.75;4966585;28;20073;-91
2022/01/06 10:06:16;;;;;;;7.97;2.50;;;;;;;2.00;100.00;93944.16;4982234;28;20113;-93
2022/01/06 10:08:50;;;;;;;6.18;2.92;;;;;;;1.97;100.00;93960.88;4981427;28;20038;-91
2022/01/06 10:11:19;;;;;;;5.38;2.60;;;;;;;1.48;100.00;93951.47;4982281;28;20026;-91
2022/01/06 10:13:55;;;;;;;8.45;2.15;;;;;;;1.91;100.00;93954.03;4966537;28;20455;-91
2022/01/06 10:16:23;;;;;;;6.97;2.97;;;;;;;1.97;100.00;93955.72;4982812;28;20030;-92
2022/01/06 10:19:10;;;;;;;7.15;3.10;;;;;;;1.77;100.00;93954.22;4965798;28;20093;-92
2022/01/06 10:21:38;;;;;;;8.57;3.35;;;;;;;1.37;100.00;93957.38;4998492;28;20104;-93
2022/01/06 10:24:05;;;;;;;6.28;2.67;;;;;;;0.94;100.00;93953.94;4999577;28;20030;-92
2022/01/06 10:26:31;;;;;;;6.72;2.80;;;;;;;1.15;100.00;93954.47;4966356;28;20037;-91
2022/01/06 10:28:57;;;;;;;13.57;2.75;;;;;;;1.56;100.00;93955.53;4965553;28;20136;-93
2022/01/06 10:31:30;;;;;;;15.98;2.95;;;;;;;1.43;100.00;93956.47;4982282;28;20034;-92
2022/01/06 10:33:56;;;;;;;8.63;2.60;;;;;;;1.47;100.00;93957.63;4981976;28;20555;-91
2022/01/06 10:36:31;;;;;;;4.38;1.80;;;;;;;1.58;100.00;93957.88;4981514;28;20030;-91
2022/01/06 10:38:59;;;;;;;9.80;2.50;;;;;;;1.63;100.00;93958.78;4981490;28;20030;-91
2022/01/06 10:41:27;;;;;;;8.40;3.03;;;;;;;1.20;100.00;93963.16;4981881;28;20157;-90
2022/01/06 10:43:59;;;;;;;8.00;3.08;;;;;;;1.78;100.00;93958.38;4981298;28;20026;-91
2022/01/06 10:46:40;;;;;;;10.48;2.50;;;;;;;1.94;100.00;93969.06;4997679;28;20034;-91
2022/01/06 10:49:17;;;;;;;8.35;3.20;;;;;;;2.11;100.00;93969.22;4965708;28;20339;-93
2022/01/06 10:51:48;;;;;;;8.23;2.67;;;;;;;2.17;100.00;93972.72;4981755;28;20117;-94
2022/01/06 10:54:17;;;;;;;7.90;3.00;;;;;;;2.26;100.00;93984.28;4965820;28;20033;-92
2022/01/06 10:56:43;;;;;;;8.80;2.72;;;;;;;2.68;100.00;93975.63;4981998;28;20080;-93
2022/01/06 10:59:10;;;;;;;9.27;3.53;;;;;;;2.50;100.00;93979.13;4998037;28;20155;-92
2022/01/06 11:01:36;;;;;;;10.18;2.30;;;;;;;1.84;100.00;93977.38;4965718;28;20126;-93
2022/01/06 11:04:03;;;;;;;7.30;2.50;;;;;;;2.18;100.00;93976.88;4997730;28;20161;-94
2022/01/06 11:06:30;;;;;;;5.43;2.95;;;;;;;2.11;100.00;93979.56;4965443;28;20451;-94
2022/01/06 11:08:56;;;;;;;4.93;2.28;;;;;;;2.29;100.00;93980.47;4997765;28;20022;-94
2022/01/06 11:11:43;;;;;;;6.85;2.95;;;;;;;2.19;100.00;93988.78;4981001;28;20026;-94
2022/01/06 11:14:09;;;;;;;122.25;5.75;;;;;;;2.15;100.00;93983.25;4984364;28;20386;-93
2022/01/06 11:16:35;;;;;;;110.85;30.38;;;;;;;1.74;100.00;93979.72;4981694;28;20030;-93
2022/01/06 11:19:01;;;;;;;497.83;23.40;;;;;;;1.45;100.00;93979.50;4965253;28;20037;-93
2022/01/06 11:21:34;;;;;;;30.70;2.70;;;;;;;1.90;100.00;93980.88;4964486;28;20325;-93
2022/01/06 11:24:01;;;;;;;42.63;3.30;;;;;;;1.60;100.00;93976.53;4981433;28;20030;-90
2022/01/06 11:26:28;;;;;;;140.07;9.05;;;;;;;1.94;100.00;93987.16;4981671;28;20025;-94
2022/01/06 11:28:58;;;;;;;441.73;48.92;;;;;;;1.91;100.00;93979.88;4981188;28;20022;-93
2022/01/06 11:31:28;;;;;;;350.63;21.38;;;;;;;1.64;100.00;93988.00;4965135;28;20344;-94
2022/01/06 11:33:56;;;;;;;361.83;39.55;;;;;;;2.03;100.00;93980.69;4981050;28;20026;-94
2022/01/06 11:36:31;;;;;;;280.48;12.05;;;;;;;1.65;100.00;93980.03;4965641;28;20072;-93
2022/01/06 11:39:06;;;;;;;312.17;18.77;;;;;;;1.89;100.00;93987.81;4998190;28;20129;-93
2022/01/06 11:41:59;;;;;;;12.05;4.38;;;;;;;1.92;100.00;93984.78;4965422;28;20022;-93
2022/01/06 11:44:27;;;;;;;26.07;6.10;;;;;;;2.64;100.00;93980.44;4997853;28;20037;-93
2022/01/06 11:46:56;;;;;;;3.63;1.13;;;;;;;2.56;100.00;93990.34;4980035;28;20276;-94
2022/01/06 11:49:33;;;;;;;28.52;2.83;;;;;;;2.56;100.00;93993.72;4964816;28;20031;-93
2022/01/06 11:52:18;;;;;;;8.43;1.88;;;;;;;2.87;100.00;93991.78;4980842;28;20158;-94
2022/01/06 11:54:56;;;;;;;2.42;0.90;;;;;;;3.11;100.00;93981.38;4998380;28;20450;-94
2022/01/06 11:57:28;;;;;;;4.72;1.40;;;;;;;2.92;100.00;93978.94;4980966;28;20034;-93
2022/01/06 11:59:53;;;;;;;261.20;10.88;;;;;;;2.41;100.00;93986.44;4998150;28;20038;-94
2022/01/06 12:02:21;;;;;;;79.70;3.90;;;;;;;2.36;100.00;93981.94;4964873;28;20452;-93
2022/01/06 12:04:57;;;;;;;12.23;3.22;;;;;;;2.97;100.00;93979.03;4998169;28;20077;-93
2022/01/06 12:07:25;;;;;;;4.32;1.73;;;;;;;2.95;100.00;93981.06;4981110;28;20022;-93
2022/01/06 12:09:58;;;;;;;8.57;2.08;;;;;;;3.46;100.00;93982.28;4997499;28;20084;-93
2022/01/06 12:12:35;;;;;;;2.72;1.80;;;;;;;3.20;100.00;93976.63;4981184;28;20049;-93
2022/01/06 12:15:12;;;;;;;7.22;1.35;;;;;;;3.34;100.00;93990.88;4995837;28;20093;-93
2022/01/06 12:17:48;;;;;;;9.55;3.40;;;;;;;3.20;100.00;93986.97;4996918;28;20475;-94
2022/01/06 12:20:26;;;;;;;14.57;2.53;;;;;;;2.97;100.00;93983.44;4981106;28;20032;-93
2022/01/06 12:22:59;;;;;;;27.15;1.85;;;;;;;3.17;100.00;93983.06;4979830;28;20041;-91
2022/01/06 12:25:29;;;;;;;28.15;4.10;;;;;;;3.60;100.00;93975.78;4983087;28;20037;-94
2022/01/06 12:28:03;;;;;;;4.57;1.45;;;;;;;3.63;100.00;93984.91;4983366;28;20023;-96
2022/01/06 12:30:42;;;;;;;121.82;5.25;;;;;;;2.80;100.00;93983.34;4980138;28;20045;-95
2022/01/06 12:33:14;;;;;;;99.03;4.53;;;;;;;2.97;100.00;93984.22;4990304;28;20034;-95
2022/01/06 12:36:07;;;;;;;18.90;2.50;;;;;;;3.18;100.00;93984.63;4995117;28;20058;-96
2022/01/06 12:38:37;;;;;;;4.57;1.73;;;;;;;2.06;100.00;93987.97;4997076;28;20137;-96
2022/01/06 12:41:08;;;;;;;2.80;1.60;;;;;;;1.92;100.00;93984.78;4995780;28;20281;-95
2022/01/06 12:43:55;;;;;;;44.88;2.00;;;;;;;2.85;100.00;93991.22;5012317;28;20022;-95
2022/01/06 12:47:15;;;;;;;109.53;6.32;;;;;;;2.75;100.00;93989.22;5014463;28;20355;-95
2022/01/06 12:49:48;;;;;;;3.50;1.60;;;;;;;3.24;100.00;93988.09;5003261;28;20034;-94
2022/01/06 12:52:29;;;;;;;6.55;1.90;;;;;;;3.52;100.00;93994.31;4994169;28;20066;-95
2022/01/06 12:55:04;;;;;;;397.80;15.73;;;;;;;2.81;100.00;93995.28;4978504;28;20035;-95
2022/01/06 12:57:33;;;;;;;48.80;2.80;;;;;;;3.23;100.00;93996.88;4974323;28;20038;-93
2022/01/06 12:59:59;;;;;;;13.30;2.10;;;;;;;2.71;100.00;93989.88;4986069;28;20034;-94
2022/01/06 13:02:26;;;;;;;78.18;4.55;;;;;;;2.46;100.00;93978.78;4983532;28;20036;-94
2022/01/06 13:04:52;;;;;;;3.05;1.63;;;;;;;3.12;100.00;93990.72;4967270;28;20134;-92
2022/01/06 13:07:18;;;;;;;3.03;1.77;;;;;;;2.93;100.00;93982.31;4967639;28;20072;-93
2022/01/06 13:09:47;;;;;;;995.45;532.63;;;;;;;3.25;100.00;93990.44;4983681;28;20073;-93
2022/01/06 13:12:23;;;;;;;243.82;18.35;;;;;;;3.17;100.00;94001.19;4967290;28;20451;-93
2022/01/06 13:14:54;;;;;;;13.75;3.40;;;;;;;3.24;100.00;94003.63;4983610;28;20196;-93
2022/01/06 13:17:29;;;;;;;298.15;14.82;;;;;;;2.84;100.00;94005.16;4983876;28;20037;-94